Time;durP1;ratioP1;P1;durP2;ratioP2;P2;SDS_P1;SDS_P2;PMS_P1;PMS_P2;Temp;Humidity;BMP_temperature;BMP_pressure;BME280_temperature;BME280_humidity;BME280_pressure;Samples;Min_cycle;Max_cycle;Signal;HPM_P1;HPM_P2
2023/12/22 00:01:39;;;;;;;17.73;2.97;;;4.10;99.90;;;;;;5029330;28;20646;-54
2023/12/22 00:04:06;;;;;;;29.35;5.57;;;4.00;99.90;;;;;;5029282;28;20482;-53
2023/12/22 00:06:32;;;;;;;20.55;3.03;;;4.00;99.90;;;;;;5029827;28;20242;-53
2023/12/22 00:08:58;;;;;;;22.85;3.10;;;4.00;99.90;;;;;;5029433;28;20025;-54
2023/12/22 00:11:23;;;;;;;18.27;3.72;;;4.00;99.90;;;;;;5030123;28;20056;-53
2023/12/22 00:13:50;;;;;;;10.73;2.63;;;4.00;99.90;;;;;;5029631;28;20045;-53
2023/12/22 00:16:16;;;;;;;9.15;2.95;;;3.90;99.90;;;;;;5029202;28;20025;-52
2023/12/22 00:18:42;;;;;;;17.98;3.22;;;3.90;99.90;;;;;;5030669;28;20445;-54
2023/12/22 00:21:11;;;;;;;10.57;2.63;;;3.90;99.90;;;;;;5032813;28;20025;-53
2023/12/22 00:23:37;;;;;;;21.00;3.55;;;3.80;99.90;;;;;;5034397;28;20029;-52
2023/12/22 00:26:03;;;;;;;13.60;2.90;;;3.80;99.90;;;;;;5014719;28;20036;-53
2023/12/22 00:28:31;;;;;;;18.20;3.20;;;3.80;99.90;;;;;;5031169;28;20342;-53
2023/12/22 00:30:57;;;;;;;16.90;4.00;;;3.80;99.90;;;;;;5033106;28;20013;-52
2023/12/22 00:33:23;;;;;;;26.52;3.35;;;3.80;99.90;;;;;;5032200;28;20494;-53
2023/12/22 00:35:48;;;;;;;18.25;3.50;;;3.90;99.90;;;;;;5015870;28;20029;-54
2023/12/22 00:38:14;;;;;;;17.73;3.72;;;3.90;99.90;;;;;;5033126;28;20032;-52
2023/12/22 00:40:39;;;;;;;20.63;4.28;;;3.90;99.90;;;;;;5034290;28;20466;-54
2023/12/22 00:43:05;;;;;;;21.65;3.45;;;3.90;99.90;;;;;;5033045;28;20025;-54
2023/12/22 00:45:31;;;;;;;21.30;3.72;;;4.00;99.90;;;;;;5033802;28;20067;-52
2023/12/22 00:47:56;;;;;;;19.45;4.43;;;3.90;99.90;;;;;;5032610;28;20103;-54
2023/12/22 00:50:22;;;;;;;23.38;3.92;;;4.00;99.90;;;;;;5033890;28;20060;-54
2023/12/22 00:52:48;;;;;;;13.93;3.22;;;4.10;99.90;;;;;;5034075;28;20032;-53
2023/12/22 00:55:14;;;;;;;21.08;3.38;;;4.10;99.90;;;;;;5015260;28;20024;-53
2023/12/22 00:57:39;;;;;;;13.10;2.67;;;4.20;99.90;;;;;;5014775;28;20546;-54
2023/12/22 01:00:08;;;;;;;13.80;3.33;;;4.20;99.90;;;;;;5033105;28;20026;-51
2023/12/22 01:02:34;;;;;;;16.55;3.20;;;4.30;99.90;;;;;;5034843;28;20082;-54
2023/12/22 01:05:00;;;;;;;16.30;3.15;;;4.30;99.90;;;;;;5015470;28;20112;-54
2023/12/22 01:07:25;;;;;;;16.27;3.80;;;4.20;99.90;;;;;;5034304;28;20026;-51
2023/12/22 01:09:51;;;;;;;20.85;3.67;;;4.20;99.90;;;;;;5033680;28;20029;-53
2023/12/22 01:12:17;;;;;;;19.60;3.55;;;4.20;99.90;;;;;;5033164;28;20014;-54
2023/12/22 01:14:45;;;;;;;19.17;4.22;;;4.20;99.90;;;;;;5034728;28;20087;-53
2023/12/22 01:17:11;;;;;;;28.98;3.85;;;4.20;99.90;;;;;;5032974;28;20041;-54
2023/12/22 01:19:36;;;;;;;21.58;5.05;;;4.10;99.90;;;;;;5034945;28;20100;-54
2023/12/22 01:22:02;;;;;;;19.77;3.97;;;4.10;99.90;;;;;;5033404;28;20116;-54
2023/12/22 01:24:28;;;;;;;20.60;3.72;;;4.00;99.90;;;;;;5034173;28;20021;-53
2023/12/22 01:26:53;;;;;;;20.23;3.30;;;4.00;99.90;;;;;;5032993;28;20103;-54
2023/12/22 01:29:19;;;;;;;16.20;4.18;;;4.00;99.90;;;;;;5032953;28;20075;-54
2023/12/22 01:31:45;;;;;;;19.13;3.67;;;3.90;99.90;;;;;;5034633;28;20025;-52
2023/12/22 01:34:11;;;;;;;16.42;4.38;;;3.90;99.90;;;;;;5014216;28;20056;-53
2023/12/22 01:36:36;;;;;;;27.27;3.85;;;3.90;99.90;;;;;;5032139;28;20072;-52
2023/12/22 01:39:02;;;;;;;17.55;3.60;;;3.90;99.90;;;;;;5030517;28;20465;-52
2023/12/22 01:41:28;;;;;;;26.85;4.63;;;3.90;99.90;;;;;;5034056;28;20057;-52
2023/12/22 01:43:54;;;;;;;22.20;3.55;;;3.90;99.90;;;;;;5029184;28;20123;-50
2023/12/22 01:46:20;;;;;;;27.45;4.03;;;3.90;99.90;;;;;;5032497;28;20443;-53
2023/12/22 01:48:46;;;;;;;13.52;3.50;;;3.90;99.90;;;;;;5032411;28;20041;-51
2023/12/22 01:51:12;;;;;;;23.00;4.20;;;3.80;99.90;;;;;;5030506;28;20041;-53
2023/12/22 01:53:38;;;;;;;27.27;5.45;;;3.80;99.90;;;;;;5032412;28;20030;-53
2023/12/22 01:56:04;;;;;;;20.98;4.22;;;3.80;99.90;;;;;;5014535;28;20106;-53
2023/12/22 01:58:34;;;;;;;18.42;4.30;;;3.80;99.90;;;;;;5032818;28;20025;-53
2023/12/22 02:01:00;;;;;;;18.85;3.95;;;3.80;99.90;;;;;;5032993;28;20450;-54
2023/12/22 02:03:27;;;;;;;21.60;3.40;;;3.70;99.90;;;;;;5034105;28;20030;-53
2023/12/22 02:05:54;;;;;;;25.35;5.63;;;3.70;99.90;;;;;;5033317;28;20036;-55
2023/12/22 02:08:22;;;;;;;22.27;3.67;;;3.70;99.90;;;;;;5032932;28;20028;-54
2023/12/22 02:10:48;;;;;;;20.73;3.55;;;3.70;99.90;;;;;;5034538;28;20021;-54
2023/12/22 02:13:14;;;;;;;24.63;4.65;;;3.70;99.90;;;;;;5033513;28;20489;-55
2023/12/22 02:15:40;;;;;;;23.48;4.35;;;3.70;99.90;;;;;;5035399;28;20025;-56
2023/12/22 02:18:21;;;;;;;31.63;5.72;;;3.70;99.90;;;;;;5033174;28;20044;-55
2023/12/22 02:20:47;;;;;;;24.15;3.78;;;3.80;99.90;;;;;;5030887;28;20021;-56
2023/12/22 02:23:13;;;;;;;32.15;5.70;;;3.80;99.90;;;;;;5030729;28;20052;-55
2023/12/22 02:25:38;;;;;;;23.30;4.20;;;3.80;99.90;;;;;;5034914;28;20095;-55
2023/12/22 02:28:07;;;;;;;27.38;4.78;;;3.80;99.90;;;;;;5032956;28;20021;-54
2023/12/22 02:30:56;;;;;;;17.02;3.45;;;3.80;99.90;;;;;;5034777;28;20025;-56
2023/12/22 02:33:23;;;;;;;17.73;4.55;;;3.80;99.90;;;;;;5030498;28;20204;-56
2023/12/22 02:35:51;;;;;;;27.80;3.60;;;3.90;99.90;;;;;;5034507;28;20491;-53
2023/12/22 02:38:17;;;;;;;18.25;2.80;;;3.80;99.90;;;;;;5033226;28;20379;-55
2023/12/22 02:40:44;;;;;;;28.42;3.95;;;3.80;99.90;;;;;;5035733;28;20029;-56
2023/12/22 02:43:10;;;;;;;16.52;3.08;;;3.80;99.90;;;;;;5031677;28;20025;-53
2023/12/22 02:45:36;;;;;;;11.13;3.08;;;3.80;99.90;;;;;;5035725;28;20049;-53
2023/12/22 02:48:02;;;;;;;20.63;4.70;;;3.80;99.90;;;;;;5032896;28;20127;-53
2023/12/22 02:50:27;;;;;;;17.77;2.70;;;3.80;99.90;;;;;;5034771;28;20052;-53
2023/12/22 02:52:53;;;;;;;25.23;5.30;;;3.80;99.90;;;;;;5035205;28;20482;-52
2023/12/22 02:55:18;;;;;;;21.48;5.95;;;3.80;99.90;;;;;;5033506;28;20040;-52
2023/12/22 02:57:44;;;;;;;29.70;4.57;;;3.80;99.90;;;;;;5035396;28;20513;-53
2023/12/22 03:00:10;;;;;;;24.95;3.55;;;3.80;99.90;;;;;;5033364;28;20025;-52
2023/12/22 03:02:36;;;;;;;14.80;3.35;;;3.80;99.90;;;;;;5035011;28;20030;-53
2023/12/22 03:05:01;;;;;;;19.67;3.03;;;3.80;99.90;;;;;;5030790;28;20056;-53
2023/12/22 03:07:27;;;;;;;27.95;4.18;;;3.80;99.90;;;;;;5014778;28;20033;-53
2023/12/22 03:09:52;;;;;;;21.23;3.35;;;3.80;99.90;;;;;;5033445;28;20049;-52
2023/12/22 03:12:18;;;;;;;21.13;3.40;;;3.70;99.90;;;;;;5033479;28;20026;-53
2023/12/22 03:14:44;;;;;;;20.15;3.40;;;3.80;99.90;;;;;;5032905;28;20025;-55
2023/12/22 03:17:10;;;;;;;21.08;4.15;;;3.80;99.90;;;;;;5033432;28;20036;-52
2023/12/22 03:19:36;;;;;;;16.23;3.80;;;3.80;99.90;;;;;;5035962;28;20109;-51
2023/12/22 03:22:02;;;;;;;19.27;3.30;;;3.80;99.90;;;;;;5030852;28;20100;-53
2023/12/22 03:24:28;;;;;;;23.02;3.17;;;3.80;99.90;;;;;;5031647;28;20032;-54
2023/12/22 03:26:54;;;;;;;28.77;4.38;;;3.80;99.90;;;;;;5034949;28;20025;-53
2023/12/22 03:29:20;;;;;;;21.90;3.55;;;3.90;99.90;;;;;;5033694;28;20025;-53
2023/12/22 03:31:46;;;;;;;26.95;3.28;;;3.90;99.90;;;;;;5036370;28;20102;-52
2023/12/22 03:34:13;;;;;;;20.77;3.75;;;3.90;99.90;;;;;;5033588;28;20021;-52
2023/12/22 03:36:38;;;;;;;18.10;3.60;;;4.00;99.90;;;;;;5035891;28;20075;-53
2023/12/22 03:39:04;;;;;;;16.70;2.50;;;4.00;99.90;;;;;;5034254;28;20446;-53
2023/12/22 03:41:30;;;;;;;13.80;3.38;;;4.00;99.90;;;;;;5035577;28;20029;-53
2023/12/22 03:43:57;;;;;;;19.15;3.35;;;3.90;99.90;;;;;;5035634;28;20021;-53
2023/12/22 03:46:23;;;;;;;12.32;2.88;;;4.00;99.90;;;;;;5030257;28;20044;-49
2023/12/22 03:48:49;;;;;;;11.30;2.45;;;4.00;99.90;;;;;;5031520;28;20026;-54
2023/12/22 03:51:15;;;;;;;14.35;2.70;;;4.10;99.90;;;;;;5008967;28;20017;-51
2023/12/22 03:53:41;;;;;;;7.68;2.25;;;4.10;99.90;;;;;;5026570;28;20437;-53
2023/12/22 03:56:10;;;;;;;9.88;1.73;;;4.00;99.90;;;;;;5029660;28;20026;-54
2023/12/22 03:58:36;;;;;;;6.95;1.50;;;4.00;99.90;;;;;;5030438;28;20029;-52
2023/12/22 04:01:02;;;;;;;7.82;1.33;;;4.00;99.90;;;;;;5030681;28;20121;-53
2023/12/22 04:03:28;;;;;;;7.55;1.77;;;4.00;99.90;;;;;;5030469;28;20470;-54
2023/12/22 04:05:54;;;;;;;9.32;1.52;;;4.00;99.90;;;;;;5029897;28;20406;-52
2023/12/22 04:08:22;;;;;;;7.72;1.73;;;3.90;99.90;;;;;;5030233;28;20091;-52
2023/12/22 04:10:48;;;;;;;5.10;1.40;;;3.80;99.90;;;;;;5030376;28;20485;-54
2023/12/22 04:13:14;;;;;;;8.20;1.23;;;3.80;99.90;;;;;;5030188;28;20030;-52
2023/12/22 04:15:40;;;;;;;5.53;1.80;;;3.80;99.90;;;;;;5029874;28;20025;-54
2023/12/22 04:18:06;;;;;;;9.13;3.15;;;3.80;99.90;;;;;;5030203;28;20033;-52
2023/12/22 04:20:31;;;;;;;14.25;1.58;;;3.70;99.90;;;;;;5032141;28;20021;-54
2023/12/22 04:22:57;;;;;;;7.10;1.50;;;3.70;99.90;;;;;;5039823;28;20427;-50
2023/12/22 04:25:24;;;;;;;11.02;1.95;;;3.80;99.90;;;;;;5038489;28;20029;-54
2023/12/22 04:27:52;;;;;;;13.25;2.50;;;3.70;99.90;;;;;;5022585;28;20484;-53
2023/12/22 04:30:17;;;;;;;11.27;2.10;;;3.70;99.90;;;;;;5038067;28;20030;-54
2023/12/22 04:32:43;;;;;;;12.27;2.38;;;3.70;99.90;;;;;;5041311;28;20075;-54
2023/12/22 04:35:09;;;;;;;14.75;2.47;;;3.70;99.90;;;;;;5038163;28;20104;-53
2023/12/22 04:37:34;;;;;;;16.30;2.25;;;3.70;99.90;;;;;;5035391;28;20112;-51
2023/12/22 04:40:00;;;;;;;13.63;2.72;;;3.70;99.90;;;;;;5039194;28;20029;-53
2023/12/22 04:42:27;;;;;;;19.02;2.58;;;3.70;99.90;;;;;;5038799;28;20061;-49
2023/12/22 04:44:52;;;;;;;16.83;3.00;;;3.70;99.90;;;;;;5040402;28;20056;-50
2023/12/22 04:47:18;;;;;;;17.23;3.00;;;3.70;99.90;;;;;;5019970;28;20013;-54
2023/12/22 04:49:44;;;;;;;14.18;3.17;;;3.80;99.90;;;;;;5031807;28;20021;-53
2023/12/22 04:52:11;;;;;;;17.80;3.33;;;3.80;99.90;;;;;;5011132;28;20021;-54
2023/12/22 04:54:37;;;;;;;20.23;3.42;;;3.90;99.90;;;;;;5029264;28;20028;-55
2023/12/22 04:57:03;;;;;;;18.75;3.45;;;3.90;99.90;;;;;;5028885;28;20108;-52
2023/12/22 04:59:29;;;;;;;16.85;4.00;;;3.90;99.90;;;;;;5029506;28;20141;-54
2023/12/22 05:01:55;;;;;;;17.38;3.90;;;4.00;99.90;;;;;;5011231;28;20108;-51
2023/12/22 05:04:21;;;;;;;12.88;3.30;;;4.00;99.90;;;;;;5037874;28;20279;-54
2023/12/22 05:06:47;;;;;;;19.40;4.28;;;4.00;99.90;;;;;;5039720;28;20037;-55
2023/12/22 05:09:13;;;;;;;16.65;3.63;;;4.00;99.90;;;;;;5037882;28;20116;-54
2023/12/22 05:11:38;;;;;;;15.68;3.42;;;4.10;99.90;;;;;;5040338;28;20070;-53
2023/12/22 05:14:04;;;;;;;24.73;3.17;;;4.10;99.90;;;;;;5039390;28;20032;-54
2023/12/22 05:16:31;;;;;;;19.65;3.42;;;4.20;99.90;;;;;;5039104;28;20037;-54
2023/12/22 05:18:57;;;;;;;23.00;2.83;;;4.20;99.90;;;;;;5041027;28;20496;-52
2023/12/22 05:21:24;;;;;;;20.02;2.67;;;4.20;99.90;;;;;;5039010;28;20249;-54
2023/12/22 05:23:50;;;;;;;13.27;2.70;;;4.20;99.90;;;;;;5041722;28;20090;-51
2023/12/22 05:26:20;;;;;;;13.13;3.40;;;4.10;99.90;;;;;;5038166;28;20017;-54
2023/12/22 05:28:45;;;;;;;17.00;3.42;;;4.10;99.90;;;;;;5033324;28;20465;-54
2023/12/22 05:31:11;;;;;;;18.58;3.20;;;4.10;99.90;;;;;;5038702;28;20037;-54
2023/12/22 05:33:37;;;;;;;12.02;2.55;;;4.10;99.90;;;;;;5040675;28;20025;-53
2023/12/22 05:36:03;;;;;;;12.50;2.92;;;3.90;99.90;;;;;;5039759;28;20029;-54
2023/12/22 05:38:28;;;;;;;13.95;2.80;;;3.80;99.90;;;;;;5039795;28;20048;-54
2023/12/22 05:40:54;;;;;;;9.40;2.45;;;3.70;99.90;;;;;;5041427;28;20059;-55
2023/12/22 05:43:19;;;;;;;7.82;1.58;;;3.60;99.90;;;;;;5038706;28;20060;-54
2023/12/22 05:45:45;;;;;;;8.68;2.17;;;3.50;99.90;;;;;;5041182;28;20344;-54
2023/12/22 05:48:11;;;;;;;9.23;1.50;;;3.40;99.90;;;;;;5038788;28;20025;-55
2023/12/22 05:50:36;;;;;;;4.97;1.42;;;3.30;99.90;;;;;;5040519;28;20699;-54
2023/12/22 05:53:02;;;;;;;8.90;1.55;;;3.10;99.90;;;;;;5040247;28;20049;-53
2023/12/22 05:55:28;;;;;;;9.80;1.70;;;3.10;99.90;;;;;;5039306;28;20028;-54
2023/12/22 05:57:54;;;;;;;10.40;2.03;;;3.00;99.90;;;;;;5013418;28;20045;-55
2023/12/22 06:00:20;;;;;;;9.65;2.40;;;2.90;99.90;;;;;;5024270;28;20025;-52
2023/12/22 06:02:45;;;;;;;14.52;2.17;;;2.80;99.90;;;;;;5019546;28;20028;-53
2023/12/22 06:05:11;;;;;;;9.27;1.77;;;2.70;99.90;;;;;;5038853;28;20474;-52
2023/12/22 06:07:37;;;;;;;5.72;2.00;;;2.70;99.90;;;;;;5020013;28;20060;-54
2023/12/22 06:10:02;;;;;;;5.72;1.77;;;2.70;99.90;;;;;;5037779;28;20196;-55
2023/12/22 06:12:28;;;;;;;13.90;3.65;;;2.70;99.90;;;;;;5040025;28;20459;-54
2023/12/22 06:14:54;;;;;;;12.73;2.42;;;2.70;99.90;;;;;;5041440;28;20417;-54
2023/12/22 06:17:19;;;;;;;12.32;2.72;;;2.70;99.90;;;;;;5036992;28;20487;-53
2023/12/22 06:19:45;;;;;;;20.98;2.35;;;2.70;99.90;;;;;;5023705;28;20025;-54
2023/12/22 06:22:10;;;;;;;11.70;3.40;;;2.70;99.90;;;;;;5039297;28;20462;-54
2023/12/22 06:24:36;;;;;;;9.63;2.17;;;2.80;99.90;;;;;;5040774;28;20029;-54
2023/12/22 06:27:02;;;;;;;9.88;2.05;;;2.90;99.90;;;;;;5040352;28;20148;-55
2023/12/22 06:29:27;;;;;;;13.48;2.25;;;2.90;99.90;;;;;;5039660;28;20021;-55
2023/12/22 06:31:53;;;;;;;12.13;2.17;;;3.00;99.90;;;;;;5042120;28;20170;-54
2023/12/22 06:34:19;;;;;;;18.48;2.78;;;3.00;99.90;;;;;;5038883;28;20344;-54
2023/12/22 06:36:44;;;;;;;15.05;4.28;;;3.10;99.90;;;;;;5017129;28;20545;-54
2023/12/22 06:39:10;;;;;;;11.15;3.22;;;3.10;99.90;;;;;;5031901;28;20017;-54
2023/12/22 06:41:35;;;;;;;14.68;2.47;;;3.10;99.90;;;;;;5020359;28;20368;-54
2023/12/22 06:44:01;;;;;;;21.55;3.20;;;3.10;99.90;;;;;;5037882;28;20033;-53
2023/12/22 06:46:28;;;;;;;18.70;2.80;;;3.20;99.90;;;;;;5038851;28;20108;-54
2023/12/22 06:48:56;;;;;;;24.95;4.45;;;3.30;99.90;;;;;;5041499;28;20067;-53
2023/12/22 06:51:27;;;;;;;21.67;4.90;;;3.30;99.90;;;;;;5032721;28;20394;-54
2023/12/22 06:53:54;;;;;;;19.05;3.47;;;3.30;99.90;;;;;;5032068;28;20021;-51
2023/12/22 06:56:24;;;;;;;24.23;3.35;;;3.40;99.90;;;;;;5037990;28;20017;-51
2023/12/22 06:58:52;;;;;;;15.70;2.83;;;3.50;99.90;;;;;;5037429;28;20067;-54
2023/12/22 07:01:28;;;;;;;8.50;2.08;;;3.40;99.90;;;;;;5032349;28;20041;-53
2023/12/22 07:03:54;;;;;;;5.47;1.50;;;3.30;99.90;;;;;;5033210;28;20116;-52
2023/12/22 07:06:22;;;;;;;15.10;3.58;;;3.30;99.90;;;;;;5034628;28;20108;-54
2023/12/22 07:09:16;;;;;;;11.93;1.48;;;3.30;99.90;;;;;;5027176;28;20668;-52
2023/12/22 07:11:46;;;;;;;8.55;1.70;;;3.20;99.90;;;;;;5036829;28;20044;-53
2023/12/22 07:14:12;;;;;;;8.52;2.55;;;3.10;99.90;;;;;;5040130;28;20018;-53
2023/12/22 07:16:38;;;;;;;4.45;1.67;;;3.10;99.90;;;;;;5039894;28;20043;-54
2023/12/22 07:19:04;;;;;;;9.23;1.83;;;3.00;99.90;;;;;;5035808;28;20478;-54
2023/12/22 07:21:30;;;;;;;4.93;2.25;;;2.90;99.90;;;;;;5038043;28;20459;-54
2023/12/22 07:23:56;;;;;;;3.53;1.33;;;2.80;99.90;;;;;;5042135;28;20025;-54
2023/12/22 07:26:21;;;;;;;6.85;1.20;;;2.70;99.90;;;;;;5038784;28;20064;-54
2023/12/22 07:28:48;;;;;;;5.40;1.10;;;2.70;99.90;;;;;;5043917;28;20567;-51
2023/12/22 07:31:14;;;;;;;4.68;1.98;;;2.70;99.90;;;;;;5044104;28;20013;-53
2023/12/22 07:33:43;;;;;;;10.13;2.22;;;2.60;99.90;;;;;;5045506;28;20057;-54
2023/12/22 07:36:09;;;;;;;10.03;1.53;;;2.60;99.90;;;;;;5044185;28;20044;-55
2023/12/22 07:38:36;;;;;;;9.20;1.70;;;2.60;99.90;;;;;;5044809;28;20041;-53
2023/12/22 07:41:02;;;;;;;6.38;1.85;;;2.70;99.90;;;;;;5044432;28;20043;-54
2023/12/22 07:43:29;;;;;;;18.92;2.67;;;2.70;99.90;;;;;;5030424;28;20022;-54
2023/12/22 07:45:55;;;;;;;6.85;1.95;;;2.70;99.90;;;;;;5030399;28;20017;-53
2023/12/22 07:48:20;;;;;;;10.50;2.70;;;2.80;99.90;;;;;;5012133;28;20142;-52
2023/12/22 07:50:46;;;;;;;10.30;2.95;;;2.90;99.90;;;;;;5030652;28;20053;-53
2023/12/22 07:53:12;;;;;;;16.10;2.30;;;3.00;99.90;;;;;;5036741;28;20104;-54
2023/12/22 07:55:38;;;;;;;10.20;2.83;;;3.00;99.90;;;;;;5024217;28;20018;-54
2023/12/22 07:58:04;;;;;;;12.93;2.65;;;3.10;99.90;;;;;;5041456;28;20017;-54
2023/12/22 08:00:30;;;;;;;15.85;2.60;;;3.20;99.90;;;;;;5041801;28;20807;-54
2023/12/22 08:02:56;;;;;;;14.40;3.08;;;3.30;99.90;;;;;;5030077;28;20424;-53
2023/12/22 08:05:21;;;;;;;18.10;4.45;;;3.40;99.90;;;;;;5029776;28;20032;-53
2023/12/22 08:07:47;;;;;;;17.08;2.47;;;3.50;99.90;;;;;;5028663;28;20396;-53
2023/12/22 08:10:13;;;;;;;22.73;2.90;;;3.50;99.90;;;;;;5029811;28;20029;-54
2023/12/22 08:12:38;;;;;;;13.10;2.70;;;3.50;99.90;;;;;;5012717;28;20025;-53
2023/12/22 08:15:05;;;;;;;19.83;2.90;;;3.60;99.90;;;;;;5029469;28;20036;-54
2023/12/22 08:17:31;;;;;;;16.58;3.50;;;3.60;99.90;;;;;;5028447;28;20029;-54
2023/12/22 08:19:57;;;;;;;8.65;2.05;;;3.60;99.90;;;;;;5029957;28;20147;-54
2023/12/22 08:22:22;;;;;;;25.55;5.35;;;3.50;99.90;;;;;;5038188;28;20183;-54
2023/12/22 08:24:49;;;;;;;16.35;2.15;;;3.50;99.90;;;;;;5028028;28;20139;-54
2023/12/22 08:27:14;;;;;;;11.30;2.17;;;3.50;99.90;;;;;;5043793;28;20100;-53
2023/12/22 08:29:40;;;;;;;13.90;2.95;;;3.50;99.90;;;;;;5045552;28;20100;-54
2023/12/22 08:32:06;;;;;;;11.65;2.58;;;3.60;99.90;;;;;;5045643;28;20078;-54
2023/12/22 08:34:31;;;;;;;10.10;1.90;;;3.60;99.90;;;;;;5044195;28;20060;-54
2023/12/22 08:36:57;;;;;;;9.18;1.98;;;3.70;99.90;;;;;;5045613;28;20025;-52
2023/12/22 08:39:24;;;;;;;7.43;1.80;;;3.80;99.90;;;;;;5044057;28;20327;-51
2023/12/22 08:41:50;;;;;;;8.60;2.70;;;3.80;99.90;;;;;;5045479;28;20104;-53
2023/12/22 08:44:15;;;;;;;17.40;3.08;;;3.80;99.90;;;;;;5044801;28;20495;-52
2023/12/22 08:46:41;;;;;;;8.82;2.25;;;3.90;99.90;;;;;;5045740;28;20426;-51
2023/12/22 08:49:07;;;;;;;15.38;3.20;;;3.90;99.90;;;;;;5046536;28;20017;-51
2023/12/22 08:51:33;;;;;;;13.63;2.40;;;4.00;99.90;;;;;;5044601;28;20029;-52
2023/12/22 08:53:59;;;;;;;17.70;3.20;;;4.10;99.90;;;;;;5045986;28;20021;-52
2023/12/22 08:56:26;;;;;;;18.17;3.28;;;4.20;99.90;;;;;;5043379;28;20027;-53
2023/12/22 08:58:54;;;;;;;17.08;3.55;;;4.30;99.90;;;;;;5045853;28;20036;-55
2023/12/22 09:01:21;;;;;;;12.98;2.63;;;4.30;99.90;;;;;;5044275;28;20021;-54
2023/12/22 09:03:48;;;;;;;17.05;2.65;;;4.40;99.90;;;;;;5046308;28;20385;-52
2023/12/22 09:06:17;;;;;;;18.63;3.08;;;4.40;99.90;;;;;;5045145;28;20055;-54
2023/12/22 09:08:44;;;;;;;13.85;2.80;;;4.40;99.90;;;;;;5046574;28;20025;-55
2023/12/22 09:11:16;;;;;;;21.20;2.92;;;4.40;99.90;;;;;;5046479;28;20435;-53
2023/12/22 09:13:42;;;;;;;15.30;3.13;;;4.50;99.90;;;;;;5046473;28;20032;-54
2023/12/22 09:16:09;;;;;;;15.90;2.70;;;4.40;99.90;;;;;;5046127;28;20021;-52
2023/12/22 09:18:35;;;;;;;20.83;3.67;;;4.40;99.90;;;;;;5045566;28;20052;-52
2023/12/22 09:21:01;;;;;;;15.00;2.67;;;4.40;99.90;;;;;;5046885;28;20017;-54
2023/12/22 09:23:26;;;;;;;21.70;3.33;;;4.40;99.90;;;;;;5045407;28;20166;-54
2023/12/22 09:25:52;;;;;;;21.88;2.75;;;4.40;99.90;;;;;;5046194;28;20493;-55
2023/12/22 09:28:18;;;;;;;17.67;3.17;;;4.30;99.90;;;;;;5045537;28;20040;-53
2023/12/22 09:30:44;;;;;;;25.73;5.18;;;4.40;99.90;;;;;;5046955;28;20020;-54
2023/12/22 09:33:10;;;;;;;30.65;4.45;;;4.40;99.90;;;;;;5046725;28;20024;-51
2023/12/22 09:35:36;;;;;;;23.13;4.50;;;4.50;99.90;;;;;;5045818;28;20249;-55
2023/12/22 09:38:02;;;;;;;15.98;3.88;;;4.60;99.90;;;;;;5046268;28;20027;-55
2023/12/22 09:40:28;;;;;;;23.35;5.30;;;4.60;99.90;;;;;;5045316;28;20124;-53
2023/12/22 09:42:58;;;;;;;21.45;3.92;;;4.70;99.90;;;;;;5047223;28;20522;-54
2023/12/22 09:45:25;;;;;;;33.85;4.78;;;4.70;99.90;;;;;;5045531;28;20044;-54
2023/12/22 09:47:53;;;;;;;29.60;5.25;;;4.80;99.90;;;;;;5046516;28;20482;-53
2023/12/22 09:50:19;;;;;;;23.33;5.00;;;4.90;99.90;;;;;;5045485;28;20025;-54
2023/12/22 09:52:45;;;;;;;21.23;4.70;;;5.00;99.90;;;;;;5033064;28;20056;-51
2023/12/22 09:55:13;;;;;;;37.45;7.47;;;5.10;99.90;;;;;;5047016;28;20427;-55
2023/12/22 09:57:41;;;;;;;37.92;6.88;;;5.20;99.90;;;;;;5038817;28;20079;-54
2023/12/22 10:00:12;;;;;;;26.05;5.75;;;5.40;99.90;;;;;;5047229;28;20210;-53
2023/12/22 10:02:39;;;;;;;22.52;4.43;;;5.50;99.90;;;;;;5046183;28;20040;-54
2023/12/22 10:05:05;;;;;;;23.10;4.90;;;5.70;99.90;;;;;;5046823;28;20017;-54
2023/12/22 10:07:31;;;;;;;33.15;6.20;;;5.90;99.90;;;;;;5027264;28;20391;-51
2023/12/22 10:09:58;;;;;;;35.72;7.90;;;5.90;99.90;;;;;;5047199;28;20090;-54
2023/12/22 10:12:30;;;;;;;26.13;5.22;;;5.90;99.90;;;;;;5028171;28;20025;-52
2023/12/22 10:14:56;;;;;;;22.40;4.13;;;5.80;99.90;;;;;;5047317;28;20017;-53
2023/12/22 10:17:22;;;;;;;20.70;4.82;;;5.70;99.90;;;;;;5045342;28;20048;-52
2023/12/22 10:19:48;;;;;;;17.17;2.75;;;5.40;99.90;;;;;;5047158;28;20029;-53
2023/12/22 10:22:14;;;;;;;8.75;1.58;;;5.20;99.90;;;;;;5028766;28;20086;-53
2023/12/22 10:24:42;;;;;;;6.80;1.40;;;4.90;99.90;;;;;;5025698;28;20398;-54
2023/12/22 10:27:08;;;;;;;5.00;1.00;;;4.60;99.90;;;;;;5042530;28;20064;-53
2023/12/22 10:29:34;;;;;;;12.18;1.65;;;4.40;99.90;;;;;;5045755;28;20032;-54
2023/12/22 10:32:01;;;;;;;5.50;1.52;;;4.30;99.90;;;;;;5047179;28;20017;-53
2023/12/22 10:34:27;;;;;;;9.13;1.52;;;4.10;99.90;;;;;;5045835;28;20017;-54
2023/12/22 10:36:52;;;;;;;9.75;2.17;;;3.80;99.90;;;;;;5046859;28;20020;-54
2023/12/22 10:39:18;;;;;;;7.43;1.60;;;3.60;99.90;;;;;;5046621;28;20378;-55
2023/12/22 10:41:44;;;;;;;9.52;1.75;;;3.50;99.90;;;;;;5029313;28;20071;-55
2023/12/22 10:44:10;;;;;;;11.55;2.00;;;3.40;99.90;;;;;;5028959;28;20116;-52
2023/12/22 10:46:36;;;;;;;5.22;1.58;;;3.30;99.90;;;;;;5045928;28;20417;-55
2023/12/22 10:49:02;;;;;;;9.40;1.88;;;3.30;99.90;;;;;;5022045;28;20029;-55
2023/12/22 10:51:32;;;;;;;7.70;1.42;;;3.30;99.90;;;;;;5030516;28;20057;-53
2023/12/22 10:53:57;;;;;;;9.07;1.70;;;3.20;99.90;;;;;;5047064;28;20500;-54
2023/12/22 10:56:24;;;;;;;3.60;1.20;;;3.10;99.90;;;;;;5033202;28;20061;-54
2023/12/22 10:58:52;;;;;;;5.10;1.45;;;3.10;99.90;;;;;;5017204;28;20111;-52
2023/12/22 11:01:20;;;;;;;3.78;1.95;;;3.10;99.90;;;;;;5027061;28;20087;-54
2023/12/22 11:03:50;;;;;;;6.28;1.17;;;3.10;99.90;;;;;;5020204;28;20029;-54
2023/12/22 11:06:17;;;;;;;5.82;1.55;;;3.20;99.90;;;;;;5034141;28;20380;-51
2023/12/22 11:08:49;;;;;;;4.53;1.30;;;3.20;99.90;;;;;;5046104;28;20194;-53
2023/12/22 11:11:38;;;;;;;6.75;1.65;;;3.20;99.90;;;;;;5012145;28;20020;-53
2023/12/22 11:14:06;;;;;;;4.85;1.60;;;3.30;99.90;;;;;;5046114;28;20429;-52
2023/12/22 11:16:33;;;;;;;7.40;1.35;;;3.40;99.90;;;;;;5045464;28;20112;-54
2023/12/22 11:19:00;;;;;;;9.75;1.92;;;3.40;99.90;;;;;;5046740;28;20439;-53
2023/12/22 11:21:28;;;;;;;10.48;2.28;;;3.40;99.90;;;;;;5046225;28;20052;-51
2023/12/22 11:23:55;;;;;;;18.73;3.30;;;3.50;99.90;;;;;;5041145;28;20474;-50
2023/12/22 11:26:22;;;;;;;21.25;2.72;;;3.50;99.90;;;;;;5042421;28;20522;-53
2023/12/22 11:28:49;;;;;;;15.77;3.50;;;3.60;99.90;;;;;;5042772;28;20362;-53
2023/12/22 11:31:15;;;;;;;12.57;3.25;;;3.70;99.90;;;;;;5042696;28;20072;-53
2023/12/22 11:33:49;;;;;;;22.85;4.05;;;3.70;99.90;;;;;;5044173;28;20017;-54
2023/12/22 11:36:16;;;;;;;20.08;4.68;;;3.80;99.90;;;;;;5042401;28;20132;-53
2023/12/22 11:38:43;;;;;;;24.20;4.57;;;3.90;99.90;;;;;;5044418;28;20472;-52
2023/12/22 11:41:12;;;;;;;17.92;3.35;;;3.90;99.90;;;;;;5041900;28;20036;-53
2023/12/22 11:43:40;;;;;;;14.27;3.05;;;4.00;99.90;;;;;;5038437;28;20017;-54
2023/12/22 11:46:05;;;;;;;22.55;3.47;;;3.90;99.90;;;;;;5028376;28;20031;-54
2023/12/22 11:48:31;;;;;;;27.02;5.80;;;3.80;99.90;;;;;;5046785;28;20112;-51
2023/12/22 11:50:57;;;;;;;14.32;3.90;;;3.80;99.90;;;;;;5034257;28;20028;-53
2023/12/22 11:53:24;;;;;;;15.98;3.13;;;3.80;99.90;;;;;;5027373;28;20408;-52
2023/12/22 11:55:58;;;;;;;30.33;3.35;;;3.80;99.90;;;;;;5027639;28;20049;-52
2023/12/22 11:58:57;;;;;;;13.70;3.17;;;3.80;99.90;;;;;;5027527;28;20084;-54
2023/12/22 12:01:24;;;;;;;11.13;2.53;;;3.90;99.90;;;;;;5027329;28;20542;-53
2023/12/22 12:03:52;;;;;;;19.15;2.90;;;4.00;99.90;;;;;;5027424;28;20049;-54
2023/12/22 12:06:30;;;;;;;8.98;1.98;;;4.10;99.90;;;;;;5027333;28;20490;-56
2023/12/22 12:09:04;;;;;;;9.65;2.53;;;4.00;99.90;;;;;;5027408;28;20502;-56
2023/12/22 12:11:52;;;;;;;8.13;2.20;;;4.10;99.90;;;;;;5027625;28;20033;-52
2023/12/22 12:14:23;;;;;;;16.50;2.50;;;4.20;99.90;;;;;;5027715;28;20026;-52
2023/12/22 12:16:49;;;;;;;12.85;2.88;;;4.20;99.90;;;;;;5022100;28;20419;-50
2023/12/22 12:19:15;;;;;;;11.68;2.22;;;4.20;99.90;;;;;;5031392;28;20490;-54
2023/12/22 12:21:40;;;;;;;8.77;2.10;;;4.30;99.90;;;;;;5031215;28;20112;-54
2023/12/22 12:24:06;;;;;;;12.07;3.53;;;4.20;99.90;;;;;;5031161;28;20124;-53
2023/12/22 12:26:36;;;;;;;7.50;2.60;;;4.20;99.90;;;;;;5030787;28;20052;-55
2023/12/22 12:29:02;;;;;;;9.85;2.35;;;4.10;99.90;;;;;;5031059;28;20036;-54
2023/12/22 12:31:38;;;;;;;8.60;2.00;;;4.10;99.90;;;;;;5031242;28;20022;-51
2023/12/22 12:34:04;;;;;;;9.50;2.22;;;4.00;99.90;;;;;;5025778;28;20025;-56
2023/12/22 12:36:31;;;;;;;12.15;2.83;;;4.10;99.90;;;;;;5031187;28;20105;-53
2023/12/22 12:39:08;;;;;;;7.95;2.15;;;4.10;99.90;;;;;;5031243;28;20455;-54
2023/12/22 12:41:39;;;;;;;9.88;2.05;;;4.10;99.90;;;;;;5031443;28;20033;-52
2023/12/22 12:44:06;;;;;;;7.15;1.92;;;4.20;99.90;;;;;;5031180;28;20109;-52
2023/12/22 12:46:36;;;;;;;9.60;2.50;;;4.20;99.90;;;;;;5031028;28;20074;-52
2023/12/22 12:49:06;;;;;;;8.65;2.25;;;4.10;99.90;;;;;;5031141;28;20374;-53